Time;durP1;ratioP1;P1;durP2;ratioP2;P2;SDS_P1;SDS_P2;PMS_P1;PMS_P2;Temp;Humidity;BMP_temperature;BMP_pressure;BME280_temperature;BME280_humidity;BME280_pressure;Samples;Min_cycle;Max_cycle;Signal;HPM_P1;HPM_P2
2022/05/13 00:00:18;;;;;;;5.55;1.77;;;;;;;;;;5005363;28;95761;-75
2022/05/13 00:03:21;;;;;;;8.80;2.10;;;;;;;;;;5004876;28;95219;-74
2022/05/13 00:05:49;;;;;;;7.03;1.73;;;;;;;;;;5011469;28;95452;-74
2022/05/13 00:08:15;;;;;;;7.60;1.70;;;;;;;;;;5008183;28;97330;-76
2022/05/13 00:10:42;;;;;;;4.95;1.73;;;;;;;;;;5008515;28;95385;-76
2022/05/13 00:13:09;;;;;;;5.88;2.05;;;;;;;;;;5008595;28;96560;-75
2022/05/13 00:15:35;;;;;;;5.68;1.85;;;;;;;;;;5008719;28;98820;-75
2022/05/13 00:18:02;;;;;;;8.45;2.00;;;;;;;;;;5008182;28;95622;-75
2022/05/13 00:20:28;;;;;;;8.82;1.90;;;;;;;;;;4994880;28;96574;-74
2022/05/13 00:22:55;;;;;;;7.82;1.63;;;;;;;;;;5003074;28;97128;-75
2022/05/13 00:25:27;;;;;;;7.05;1.65;;;;;;;;;;5008463;28;95319;-75
2022/05/13 00:27:55;;;;;;;6.28;1.80;;;;;;;;;;5014643;28;96761;-76
2022/05/13 00:30:21;;;;;;;4.82;1.80;;;;;;;;;;5011216;28;95788;-75
2022/05/13 00:32:49;;;;;;;12.93;2.40;;;;;;;;;;5011535;28;96482;-75
2022/05/13 00:35:33;;;;;;;10.45;2.17;;;;;;;;;;5011932;28;96106;-75
2022/05/13 00:38:17;;;;;;;15.52;1.95;;;;;;;;;;5009883;28;95190;-75
2022/05/13 00:40:44;;;;;;;6.60;2.00;;;;;;;;;;5011322;28;96803;-75
2022/05/13 00:43:11;;;;;;;8.50;2.13;;;;;;;;;;5011880;28;97369;-75
2022/05/13 00:45:38;;;;;;;10.50;2.10;;;;;;;;;;5010555;28;95833;-75
2022/05/13 00:48:05;;;;;;;11.93;2.05;;;;;;;;;;5010787;28;96922;-75
2022/05/13 00:50:33;;;;;;;7.78;2.05;;;;;;;;;;5015128;28;97666;-74
2022/05/13 00:53:00;;;;;;;10.23;2.30;;;;;;;;;;5011539;28;96836;-75
2022/05/13 00:55:52;;;;;;;6.72;1.98;;;;;;;;;;5011562;28;97380;-76
2022/05/13 00:58:20;;;;;;;11.07;1.85;;;;;;;;;;5009053;28;95340;-74
2022/05/13 01:00:46;;;;;;;5.82;1.80;;;;;;;;;;5010872;28;95646;-76
2022/05/13 01:03:30;;;;;;;11.45;2.28;;;;;;;;;;5009461;28;96217;-75
2022/05/13 01:05:59;;;;;;;10.27;2.30;;;;;;;;;;5010078;28;95306;-75
2022/05/13 01:08:26;;;;;;;9.05;1.92;;;;;;;;;;5010839;28;96980;-77
2022/05/13 01:10:55;;;;;;;8.35;2.20;;;;;;;;;;5010859;28;97451;-76
2022/05/13 01:13:22;;;;;;;11.60;2.55;;;;;;;;;;5014044;28;95539;-75
2022/05/13 01:15:49;;;;;;;7.70;2.15;;;;;;;;;;5010565;28;97166;-75
2022/05/13 01:18:26;;;;;;;9.02;2.10;;;;;;;;;;5010253;28;95378;-76
2022/05/13 01:20:53;;;;;;;5.65;2.20;;;;;;;;;;5011168;28;97112;-74
2022/05/13 01:23:41;;;;;;;8.15;2.15;;;;;;;;;;5010758;28;96363;-75
2022/05/13 01:26:11;;;;;;;12.85;1.92;;;;;;;;;;5013005;28;95925;-75
2022/05/13 01:28:47;;;;;;;9.00;2.47;;;;;;;;;;5010690;28;96774;-75
2022/05/13 01:31:20;;;;;;;8.38;2.35;;;;;;;;;;5010675;28;97067;-75
2022/05/13 01:33:47;;;;;;;7.93;2.10;;;;;;;;;;5010734;28;95747;-75
2022/05/13 01:39:17;;;;;;;9.95;2.15;;;;;;;;;;5010805;28;95295;-76
2022/05/13 01:41:43;;;;;;;8.95;2.28;;;;;;;;;;5008592;28;96835;-74
2022/05/13 01:44:10;;;;;;;6.85;2.20;;;;;;;;;;4990410;28;97604;-74
2022/05/13 01:46:36;;;;;;;12.27;2.53;;;;;;;;;;4991888;28;95908;-76
2022/05/13 01:49:03;;;;;;;10.98;2.75;;;;;;;;;;5011464;28;96510;-76
2022/05/13 01:51:29;;;;;;;11.43;2.30;;;;;;;;;;5009419;28;97357;-75
2022/05/13 01:53:55;;;;;;;10.23;2.85;;;;;;;;;;5010673;28;95074;-75
2022/05/13 01:56:22;;;;;;;12.43;2.85;;;;;;;;;;5009690;28;96870;-75
2022/05/13 01:59:06;;;;;;;11.25;2.95;;;;;;;;;;5010962;28;95630;-75
2022/05/13 02:01:32;;;;;;;9.35;2.65;;;;;;;;;;5010581;28;96928;-75
2022/05/13 02:03:59;;;;;;;20.08;3.20;;;;;;;;;;5010374;28;97348;-75
2022/05/13 02:06:26;;;;;;;12.98;2.75;;;;;;;;;;5010848;28;95453;-74
2022/05/13 02:08:54;;;;;;;11.32;3.20;;;;;;;;;;5010260;28;98120;-74
2022/05/13 02:11:21;;;;;;;13.27;3.13;;;;;;;;;;5009986;28;97630;-73
2022/05/13 02:13:49;;;;;;;12.27;2.95;;;;;;;;;;5010201;28;95632;-74
2022/05/13 02:16:16;;;;;;;17.60;3.25;;;;;;;;;;5010111;28;95774;-75
2022/05/13 02:18:43;;;;;;;12.07;3.00;;;;;;;;;;5013504;28;97470;-75
2022/05/13 02:21:09;;;;;;;14.98;3.28;;;;;;;;;;5010759;28;96880;-75
2022/05/13 02:26:21;;;;;;;12.95;3.08;;;;;;;;;;5010126;28;95185;-75
2022/05/13 02:28:48;;;;;;;11.68;3.10;;;;;;;;;;5010343;28;95841;-74
2022/05/13 02:31:15;;;;;;;15.48;3.75;;;;;;;;;;5010310;28;97375;-74
2022/05/13 02:33:42;;;;;;;11.35;3.30;;;;;;;;;;5009530;28;95979;-75
2022/05/13 02:36:11;;;;;;;15.30;3.53;;;;;;;;;;5010540;28;96859;-74
2022/05/13 02:38:37;;;;;;;18.05;4.05;;;;;;;;;;4998677;28;96401;-75
2022/05/13 02:41:11;;;;;;;14.65;3.67;;;;;;;;;;4993062;28;95419;-75
2022/05/13 02:43:39;;;;;;;20.20;4.15;;;;;;;;;;4989488;28;97607;-75
2022/05/13 02:46:05;;;;;;;19.48;4.20;;;;;;;;;;4990185;28;95618;-73
2022/05/13 02:48:32;;;;;;;11.05;3.55;;;;;;;;;;4989331;28;96814;-75
2022/05/13 02:50:59;;;;;;;17.48;4.10;;;;;;;;;;4990486;28;99276;-74
2022/05/13 02:53:44;;;;;;;18.20;4.00;;;;;;;;;;5005371;28;95530;-75
2022/05/13 02:56:14;;;;;;;20.42;4.20;;;;;;;;;;5009856;28;96343;-75
2022/05/13 02:59:02;;;;;;;20.08;3.95;;;;;;;;;;5009830;28;97230;-75
2022/05/13 03:01:29;;;;;;;17.63;4.38;;;;;;;;;;5009101;28;95731;-74
2022/05/13 03:03:55;;;;;;;19.75;4.40;;;;;;;;;;5012941;28;96796;-76
2022/05/13 03:06:24;;;;;;;16.55;5.25;;;;;;;;;;5008285;28;95626;-76
2022/05/13 03:08:51;;;;;;;18.65;4.30;;;;;;;;;;5008859;28;96822;-74
2022/05/13 03:11:20;;;;;;;16.02;4.40;;;;;;;;;;5009253;28;98510;-76
2022/05/13 03:13:51;;;;;;;24.33;5.10;;;;;;;;;;5009598;28;95711;-76
2022/05/13 03:16:23;;;;;;;18.10;5.43;;;;;;;;;;5010180;28;96872;-76
2022/05/13 03:18:52;;;;;;;17.85;4.80;;;;;;;;;;5009874;28;97311;-76
2022/05/13 03:21:19;;;;;;;16.63;5.25;;;;;;;;;;5008794;28;95636;-76
2022/05/13 03:23:46;;;;;;;18.25;5.05;;;;;;;;;;5009923;28;96938;-76
2022/05/13 03:26:30;;;;;;;18.15;5.15;;;;;;;;;;5011187;28;95423;-75
2022/05/13 03:28:57;;;;;;;16.67;5.57;;;;;;;;;;5009420;28;95752;-76
2022/05/13 03:31:24;;;;;;;28.00;5.85;;;;;;;;;;5009278;28;97300;-76
2022/05/13 03:33:53;;;;;;;18.73;5.68;;;;;;;;;;5009651;28;95338;-75
2022/05/13 03:36:19;;;;;;;15.48;5.18;;;;;;;;;;5010213;28;96347;-74
2022/05/13 03:38:45;;;;;;;19.67;5.47;;;;;;;;;;5007974;28;97383;-76
2022/05/13 03:41:12;;;;;;;19.23;6.53;;;;;;;;;;5009600;28;95500;-75
2022/05/13 03:43:38;;;;;;;19.75;6.07;;;;;;;;;;5009121;28;96464;-76
2022/05/13 03:46:04;;;;;;;19.85;6.38;;;;;;;;;;5008672;28;96413;-76
2022/05/13 03:48:48;;;;;;;21.30;6.30;;;;;;;;;;5009105;28;95790;-76
2022/05/13 03:51:14;;;;;;;21.45;6.30;;;;;;;;;;5008526;28;97644;-76
2022/05/13 03:53:41;;;;;;;16.77;5.88;;;;;;;;;;5009160;28;95302;-76
2022/05/13 03:56:07;;;;;;;16.52;5.63;;;;;;;;;;5006940;28;96772;-75
2022/05/13 03:58:34;;;;;;;22.55;6.30;;;;;;;;;;5008902;28;97320;-76
2022/05/13 04:01:03;;;;;;;22.35;5.95;;;;;;;;;;5009367;28;95648;-75
2022/05/13 04:03:35;;;;;;;24.98;6.03;;;;;;;;;;5013015;28;95775;-76
2022/05/13 04:09:05;;;;;;;15.65;6.32;;;;;;;;;;5012561;28;95835;-76
2022/05/13 04:11:37;;;;;;;23.42;6.45;;;;;;;;;;5014686;28;97533;-74
2022/05/13 04:16:50;;;;;;;18.83;6.00;;;;;;;;;;5012953;28;96761;-74
2022/05/13 04:19:17;;;;;;;25.92;6.57;;;;;;;;;;5012019;28;97526;-76
2022/05/13 04:21:44;;;;;;;23.90;6.50;;;;;;;;;;5012503;28;95453;-76
2022/05/13 04:24:28;;;;;;;18.77;5.95;;;;;;;;;;5011789;28;95610;-76
2022/05/13 04:27:12;;;;;;;26.40;6.47;;;;;;;;;;5011696;28;95621;-75
2022/05/13 04:29:39;;;;;;;26.27;7.07;;;;;;;;;;5012230;28;95378;-76
2022/05/13 04:32:05;;;;;;;27.88;7.18;;;;;;;;;;5015380;28;96843;-74
2022/05/13 04:34:32;;;;;;;20.80;6.78;;;;;;;;;;5011182;28;95743;-76
2022/05/13 04:36:58;;;;;;;28.25;7.95;;;;;;;;;;5012238;28;97424;-76
2022/05/13 04:39:24;;;;;;;23.67;6.82;;;;;;;;;;5007039;28;97908;-76
2022/05/13 04:44:36;;;;;;;30.30;7.93;;;;;;;;;;4992095;28;96777;-74
2022/05/13 04:50:24;;;;;;;26.40;7.63;;;;;;;;;;5004841;28;95088;-77
2022/05/13 04:52:51;;;;;;;25.50;7.47;;;;;;;;;;5011338;28;96441;-75
2022/05/13 04:55:17;;;;;;;25.38;7.88;;;;;;;;;;5014918;28;97386;-77
2022/05/13 04:57:44;;;;;;;21.27;7.63;;;;;;;;;;5012474;28;96927;-76
2022/05/13 05:00:10;;;;;;;24.90;7.80;;;;;;;;;;5011356;28;97341;-76
2022/05/13 05:02:37;;;;;;;31.75;8.40;;;;;;;;;;5011917;28;95797;-76
2022/05/13 05:05:04;;;;;;;25.70;8.00;;;;;;;;;;5011666;28;97058;-75
2022/05/13 05:07:30;;;;;;;34.17;8.18;;;;;;;;;;5011056;28;97661;-76
2022/05/13 05:09:57;;;;;;;31.45;8.57;;;;;;;;;;5011185;28;95230;-77
2022/05/13 19:27:23;;;;;;;8.00;2.00;;;;;;;;;;5029287;28;95679;-74
2022/05/13 19:29:50;;;;;;;6.32;1.65;;;;;;;;;;5030749;28;97262;-73
2022/05/13 19:32:16;;;;;;;8.82;1.73;;;;;;;;;;5028550;28;95302;-73
2022/05/13 19:34:46;;;;;;;10.15;1.80;;;;;;;;;;5029070;28;96872;-75
2022/05/13 19:37:13;;;;;;;8.05;1.90;;;;;;;;;;5021584;27;97310;-75
2022/05/13 19:39:39;;;;;;;10.90;1.90;;;;;;;;;;5019700;27;95332;-74
2022/05/13 19:42:06;;;;;;;8.32;1.95;;;;;;;;;;5028747;27;95894;-74
2022/05/13 19:44:32;;;;;;;9.13;2.05;;;;;;;;;;5028071;28;97380;-74
2022/05/13 19:46:58;;;;;;;10.93;1.70;;;;;;;;;;5024649;27;96857;-74
2022/05/13 19:49:25;;;;;;;5.45;2.05;;;;;;;;;;5026848;27;97543;-74
2022/05/13 19:51:52;;;;;;;13.95;2.00;;;;;;;;;;5027471;27;96232;-74
2022/05/13 19:54:18;;;;;;;8.80;1.98;;;;;;;;;;5026522;27;96744;-74
2022/05/13 19:56:46;;;;;;;12.75;2.65;;;;;;;;;;5028901;27;96302;-74
2022/05/13 19:59:13;;;;;;;6.80;1.80;;;;;;;;;;5029253;28;95377;-74
2022/05/13 20:01:40;;;;;;;6.00;2.20;;;;;;;;;;5029070;28;95756;-74
2022/05/13 20:04:06;;;;;;;8.07;1.77;;;;;;;;;;5027734;27;97332;-74
2022/05/13 20:12:03;;;;;;;10.43;1.90;;;;;;;;;;5029116;28;95389;-74
2022/05/13 20:14:29;;;;;;;10.00;2.08;;;;;;;;;;5027450;28;96845;-74
2022/05/13 20:16:56;;;;;;;7.20;2.25;;;;;;;;;;5028514;28;97791;-74
2022/05/13 20:19:22;;;;;;;7.60;1.80;;;;;;;;;;5012181;27;95364;-74
2022/05/13 20:24:34;;;;;;;7.05;2.22;;;;;;;;;;5008433;28;97443;-74
2022/05/13 20:27:00;;;;;;;7.35;1.85;;;;;;;;;;5018933;28;95426;-74
2022/05/13 20:29:27;;;;;;;8.23;1.85;;;;;;;;;;5028415;28;96649;-74
2022/05/13 20:31:57;;;;;;;8.70;2.40;;;;;;;;;;5032251;28;97500;-73
2022/05/13 20:34:23;;;;;;;10.93;2.20;;;;;;;;;;5032153;27;95719;-74
2022/05/13 20:36:50;;;;;;;16.92;2.58;;;;;;;;;;5013962;28;97098;-74
2022/05/13 20:39:18;;;;;;;9.07;2.40;;;;;;;;;;5014747;28;95306;-74
2022/05/13 20:41:44;;;;;;;9.48;2.42;;;;;;;;;;5015610;28;96700;-73
2022/05/13 20:44:12;;;;;;;11.10;2.10;;;;;;;;;;5014858;28;97125;-74
2022/05/13 20:46:40;;;;;;;6.72;2.00;;;;;;;;;;5014169;28;95527;-74
2022/05/13 20:49:07;;;;;;;6.20;2.20;;;;;;;;;;5014887;28;96722;-74
2022/05/13 20:51:33;;;;;;;6.10;2.17;;;;;;;;;;5014559;28;97362;-74
2022/05/13 20:54:02;;;;;;;6.85;2.10;;;;;;;;;;5019204;28;96317;-74
2022/05/13 20:56:29;;;;;;;10.27;2.53;;;;;;;;;;5014561;28;97382;-74
2022/05/13 20:58:56;;;;;;;10.75;2.50;;;;;;;;;;5014720;28;95282;-74
2022/05/13 21:01:22;;;;;;;9.63;2.60;;;;;;;;;;5014208;28;96721;-73
2022/05/13 21:03:52;;;;;;;13.57;2.42;;;;;;;;;;5014203;28;95980;-73
2022/05/13 21:06:20;;;;;;;12.27;2.50;;;;;;;;;;5013761;28;95240;-74
2022/05/13 21:08:46;;;;;;;13.18;2.55;;;;;;;;;;5014912;28;97466;-73
2022/05/13 21:11:13;;;;;;;13.40;2.78;;;;;;;;;;5014165;28;97096;-74
2022/05/13 21:13:39;;;;;;;11.55;2.70;;;;;;;;;;5013865;28;95220;-73
2022/05/13 21:16:06;;;;;;;15.15;2.75;;;;;;;;;;5017871;28;96950;-73
2022/05/13 21:18:32;;;;;;;10.43;2.50;;;;;;;;;;5013892;28;96260;-73
2022/05/13 21:20:58;;;;;;;10.05;2.65;;;;;;;;;;5014728;28;96852;-74
2022/05/13 21:23:25;;;;;;;9.50;2.58;;;;;;;;;;5014351;28;97217;-74
2022/05/13 21:25:57;;;;;;;10.43;2.88;;;;;;;;;;5010279;28;95232;-74
2022/05/13 21:28:23;;;;;;;8.93;2.60;;;;;;;;;;5006498;28;96948;-74
2022/05/13 21:30:49;;;;;;;9.50;2.80;;;;;;;;;;5014532;28;97367;-74
2022/05/13 21:39:08;;;;;;;11.10;2.80;;;;;;;;;;4954974;28;95791;-74
2022/05/13 21:41:34;;;;;;;15.05;3.13;;;;;;;;;;4953327;28;96730;-73
2022/05/13 21:44:00;;;;;;;11.45;3.28;;;;;;;;;;4972463;28;96296;-73
2022/05/13 21:46:26;;;;;;;13.23;3.10;;;;;;;;;;5005895;28;95378;-73
2022/05/13 21:48:53;;;;;;;10.05;3.03;;;;;;;;;;5013027;28;96793;-73
2022/05/13 21:54:04;;;;;;;11.40;3.38;;;;;;;;;;5014159;28;95166;-73
2022/05/13 21:56:31;;;;;;;11.90;3.60;;;;;;;;;;5013626;28;96807;-74
2022/05/13 21:58:57;;;;;;;9.75;2.70;;;;;;;;;;5017112;28;97341;-75
2022/05/13 22:01:23;;;;;;;8.63;2.80;;;;;;;;;;5013643;28;96765;-74
2022/05/13 22:03:51;;;;;;;11.73;3.08;;;;;;;;;;5013878;28;97404;-74
2022/05/13 22:06:18;;;;;;;9.23;3.08;;;;;;;;;;5011990;28;95467;-74
2022/05/13 22:08:44;;;;;;;8.60;2.90;;;;;;;;;;5013490;28;96800;-74
2022/05/13 22:11:11;;;;;;;11.88;3.40;;;;;;;;;;5013993;28;97388;-74
2022/05/13 22:13:37;;;;;;;9.40;2.75;;;;;;;;;;5013015;28;95938;-74
2022/05/13 22:16:04;;;;;;;13.23;3.33;;;;;;;;;;5013402;28;96732;-75
2022/05/13 22:18:30;;;;;;;9.82;2.63;;;;;;;;;;5013258;28;96506;-74
2022/05/13 22:20:57;;;;;;;12.88;3.10;;;;;;;;;;5020465;28;95382;-74
2022/05/13 22:23:23;;;;;;;13.55;3.17;;;;;;;;;;5000394;28;96634;-74
2022/05/13 22:25:50;;;;;;;11.13;3.30;;;;;;;;;;4993468;28;96014;-74
2022/05/13 22:28:17;;;;;;;18.42;3.60;;;;;;;;;;5010711;28;96713;-74
2022/05/13 22:30:43;;;;;;;11.93;3.30;;;;;;;;;;5013167;28;96276;-74
2022/05/13 22:33:09;;;;;;;13.27;2.70;;;;;;;;;;5014078;28;95347;-74
2022/05/13 22:35:36;;;;;;;16.50;2.70;;;;;;;;;;5012985;28;96795;-74
2022/05/13 22:38:02;;;;;;;9.50;2.83;;;;;;;;;;5013224;28;97405;-73
2022/05/13 22:40:29;;;;;;;11.35;2.63;;;;;;;;;;5013529;28;95489;-74
2022/05/13 22:42:55;;;;;;;10.60;3.58;;;;;;;;;;5016287;28;96586;-74
2022/05/13 22:45:22;;;;;;;17.98;3.53;;;;;;;;;;5013457;28;95260;-73
2022/05/13 22:47:48;;;;;;;16.77;3.08;;;;;;;;;;5013411;28;96696;-73
2022/05/13 22:50:15;;;;;;;13.75;3.15;;;;;;;;;;5011987;28;97731;-73
2022/05/13 22:52:41;;;;;;;9.30;2.50;;;;;;;;;;5013583;28;95313;-74
2022/05/13 22:55:08;;;;;;;15.10;2.75;;;;;;;;;;5013719;28;96838;-74
2022/05/13 22:57:35;;;;;;;12.73;2.80;;;;;;;;;;5008721;28;96920;-74
2022/05/13 23:00:03;;;;;;;14.95;3.00;;;;;;;;;;5012561;28;95382;-73
2022/05/13 23:02:29;;;;;;;12.15;2.95;;;;;;;;;;5012818;28;97031;-74
2022/05/13 23:04:55;;;;;;;13.48;2.78;;;;;;;;;;5015097;28;97837;-73
2022/05/13 23:12:52;;;;;;;12.13;2.63;;;;;;;;;;5013513;28;95262;-74
2022/05/13 23:15:18;;;;;;;15.35;3.25;;;;;;;;;;5013054;28;96737;-74
2022/05/13 23:17:44;;;;;;;13.90;2.85;;;;;;;;;;5009315;28;97214;-73
2022/05/13 23:20:11;;;;;;;13.00;2.90;;;;;;;;;;5005608;28;95451;-73
2022/05/13 23:22:38;;;;;;;13.57;2.97;;;;;;;;;;4993016;28;96701;-74
2022/05/13 23:25:04;;;;;;;12.75;3.05;;;;;;;;;;4990660;28;97452;-74
2022/05/13 23:27:30;;;;;;;11.05;3.08;;;;;;;;;;5000095;28;95375;-72
2022/05/13 23:29:57;;;;;;;13.18;3.15;;;;;;;;;;5012171;28;97646;-74
2022/05/13 23:32:23;;;;;;;16.05;2.88;;;;;;;;;;5002886;28;95382;-74
2022/05/13 23:34:49;;;;;;;11.43;3.05;;;;;;;;;;5008270;28;96730;-74
2022/05/13 23:37:16;;;;;;;14.30;2.55;;;;;;;;;;5011252;28;96005;-73
2022/05/13 23:39:42;;;;;;;11.80;2.67;;;;;;;;;;5011654;28;95334;-73
2022/05/13 23:42:10;;;;;;;13.32;2.60;;;;;;;;;;5011678;28;96085;-73
2022/05/13 23:44:36;;;;;;;14.15;3.08;;;;;;;;;;5011757;28;97256;-73
2022/05/13 23:47:02;;;;;;;10.18;2.85;;;;;;;;;;5014010;28;96381;-73
2022/05/13 23:49:29;;;;;;;11.75;2.85;;;;;;;;;;5011072;28;96446;-74
2022/05/13 23:51:55;;;;;;;17.80;3.05;;;;;;;;;;5013472;28;95187;-74
2022/05/13 23:57:06;;;;;;;17.35;3.10;;;;;;;;;;5012022;28;97156;-74
2022/05/13 23:59:33;;;;;;;12.73;3.20;;;;;;;;;;5010767;28;95368;-73
